Strona główna
METAR-TAF:

METAR-TAF

Lotnisko :

Cazaux, Francja

Szerokość geograficzna: 44-32N, Długość geograficzna: 001-08W, wysokość: 25 m

Aktualna obserwacja pogody

Raport powstał 49 minut temu, godzina 17:30 UTC
Wiatr 7 kt od północny zachód, zmienny między zachodnio-północny zachód i północ
Temperatura 28°C
Wilgotność 58%
Ciśnienie 1008 hPa
Widzialność 10 km lub więcej
Brak chmur poniżej 1500 m i brak chmur cumulonimbus

METAR: LFBC 251730Z AUTO 32007KT 290V360 CAVOK 28/19 Q1008

czas: 20:19 (18:19 UTC)

Prognoza

Raport powstał 4 godziny i 19 minut temu, godzina 14:00 UTC
Prognoza ważna od 25 godzina 15 UTC do 26 godzina 15 UTC
Wiatr 10 kt od północny zachód
Widzialność 10 km lub więcej
Brak chmur poniżej 1500 m i brak chmur cumulonimbus
Stopniowe zmiany
od 25 godzina 21 UTC do 25 godzina 23 UTC
Wiatr 3 kt z kierunków zmiennych

TAF: LFBC 251400Z 2515/2615 32010KT CAVOK BECMG 2521/2523 VRB03KT

Obserwacja i prognoza pogody dla ponad 4000 lotnisk (raport METAR i TAF).

Dostępne stacje oznaczono żółtymi i czerwonymi punktami na mapie.

Najedź kursorem aby zobaczyć nazwę stacji.

Kliknij aby zobaczyć obserwacje i prognozy pogody.

Aby zmienić mapę: kliknij na zielony przycisk z czarnym krzyżykiem, aby powiększyć; na zielony przycisk z myślnikiem, aby pomniejszyć; na zielone strzałki, aby przejść do map sąsiednich.


METAR-TAF: